Tuesday, November 25, 2014
01:37 UTC
  |  Log In   |  Register Free
Airport Search:

Fairfield County Airport
(KFDW)

Fairfield County Airport Diagram
No Airport Diagram Available

FAA data valid effective November 13, 2014 - January 08, 2015 (unless otherwise noted).

 
 
 
 
 
 
 
 
 
 
 
 
 
 

Current Aviation Weather for Fairfield County Airport (KFDW)

The most recent METAR observation for KFDW was updated at: 0020
METAR Summary (Translated METAR)
KFDW
250015Z AUTO 16006KT 10SM -RA SCT007 SCT012 18/18 A2988 RMK AO1 LTG DSNT E
KCUB
242353Z AUTO 00000KT 10SM FEW015 SCT110 21/18 A2986 RMK AO2 RAB24E46 PRESFR SLP110 P0000 60000 T02110183 10239 20211 50009
(21.5 nm SE from KFDW)
KCAE
242356Z 00000KT 10SM BKN110 21/18 A2984 RMK AO2 RAB11E37 SLP103 P0000 60000 T02060183 10233 20206 50005
(22.6 nm SW from KFDW)
TAF Summary (Translated TAF)
KCUB
(21.5 nm SE from KFDW)
242138Z 2422/2518 23005KT P6SM BKN100 FM250900 26004KT P6SM SCT025 OVC100 FM251200 31005KT P6SM OVC025
KCAE
(22.6 nm SW from KFDW)
242138Z 2422/2518 23005KT P6SM BKN100 FM250900 26004KT P6SM SCT025 OVC100 FM251200 31005KT P6SM OVC025
  Airport Weather Conditions for KFDW

 Current Weather at FDW
64° F
Fair
South winds at 6.9 mph
FDW NOAA Radar

Pressure: 29.89 in
Humidity: 100%
Wind: South at 6.9 MPH (6 KT)
Dew Point: 64.4°F
Visibility: 10.00 mi


Airport Weather Forecast for KFDW

Translated METAR and TAF for KFDW
Translated METAR for KFDW (0132 UTC 25 November 2014)
found at http://aviationweather.gov/adds/metars/
 
METAR text: KFDW 250135Z AUTO 16008KT 10SM SCT012 SCT033 18/18 A2991 RMK AO1
Conditions at: KFDW (WINNSBORO , SC, US) observed 0135 UTC 25 November 2014
Temperature: 18.0°C (64°F)
Dewpoint: 18.0°C (64°F) [RH = 100%]
Pressure (altimeter): 29.91 inches Hg (1013.0 mb)
Winds: from the SSE (160 degrees) at 9 MPH (8 knots; 4.2 m/s)
Visibility: 10 or more miles (16+ km)
Ceiling: at least 12,000 feet AGL
Clouds: scattered clouds at 1200 feet AGL
scattered clouds at 3300 feet AGL
Weather: automated observation with no human augmentation;
there may or may not be significant weather present at this time
Translated TAF for KFDW

There is no translated TAF available for this airport

Find All Airport Services Find A Hotel Find A Rental Car Find A Golf Course Find A Restaurant $100 Hamburger



FBO's on the Field
FBO Company Facility Photos Services Transportation Aviation Fuel Prices: Prices include tax
Catering Weather Repair Courtesy Rental Type 100LL JetA JetA+ MOGAS 8087
 
S & S Aviation Services

This FBO has not yet been rated
FS:Shell
Last Updated: Nov-13
Login to update fuel prices
SS:
Contact S & S Aviation ServicesMore FBO Information
 
Add another FBO Facility Photos Catering Weather Repair Courtesy Rental Type 100LL JetA JetA+ MOGAS 8087
Services Transportation Aviation Fuel Prices: Prices include tax


model-print
model-print
model-print
model-print